Time;durP1;ratioP1;P1;durP2;ratioP2;P2;SDS_P1;SDS_P2;PMS_P1;PMS_P2;Temp;Humidity;BMP_temperature;BMP_pressure;BME280_temperature;BME280_humidity;BME280_pressure;Samples;Min_cycle;Max_cycle;Signal;HPM_P1;HPM_P2
2021/08/24 00:00:08;;;;;;;2.30;1.20;;;15.20;99.90;;;;;;5019147;28;20409;-80
2021/08/24 00:02:34;;;;;;;1.57;1.00;;;15.10;99.90;;;;;;5018713;28;20181;-81
2021/08/24 00:04:59;;;;;;;1.70;1.33;;;15.20;99.90;;;;;;5016890;28;20481;-80
2021/08/24 00:07:28;;;;;;;2.00;1.10;;;15.10;99.90;;;;;;5018773;28;20181;-80
2021/08/24 00:09:53;;;;;;;2.90;1.27;;;15.10;99.90;;;;;;5018210;28;20172;-80
2021/08/24 00:12:19;;;;;;;1.57;1.20;;;15.10;99.90;;;;;;5016778;28;20488;-80
2021/08/24 00:14:44;;;;;;;2.13;1.00;;;15.00;99.90;;;;;;5016875;28;20744;-79
2021/08/24 00:17:10;;;;;;;3.10;1.20;;;15.00;99.90;;;;;;5017805;28;20185;-81
2021/08/24 00:19:36;;;;;;;2.60;1.00;;;14.90;99.90;;;;;;5016892;28;20627;-80
2021/08/24 00:22:01;;;;;;;3.80;1.13;;;14.90;99.90;;;;;;5016428;28;20206;-80
2021/08/24 00:24:27;;;;;;;1.60;1.23;;;14.90;99.90;;;;;;5017009;28;20294;-81
2021/08/24 00:26:52;;;;;;;1.40;1.00;;;15.00;99.90;;;;;;5017557;28;20171;-80
2021/08/24 00:29:18;;;;;;;6.93;1.07;;;14.80;99.90;;;;;;5017174;28;20180;-80
2021/08/24 00:31:46;;;;;;;1.97;1.33;;;14.80;99.90;;;;;;5016858;28;20251;-80
2021/08/24 00:34:12;;;;;;;2.40;1.35;;;14.70;99.90;;;;;;5015692;28;20207;-80
2021/08/24 00:36:37;;;;;;;2.20;1.27;;;14.70;99.90;;;;;;5016243;28;20194;-80
2021/08/24 00:39:03;;;;;;;1.73;1.00;;;14.70;99.90;;;;;;5014761;28;20508;-79
2021/08/24 00:41:29;;;;;;;1.70;1.37;;;14.70;99.90;;;;;;5016088;28;20651;-80
2021/08/24 00:43:55;;;;;;;4.10;1.40;;;14.70;99.90;;;;;;5016131;28;20202;-80
2021/08/24 00:46:42;;;;;;;3.23;1.07;;;14.60;99.90;;;;;;5017602;28;20174;-79
2021/08/24 00:49:16;;;;;;;1.90;0.97;;;14.60;99.90;;;;;;5017355;28;20722;-81
2021/08/24 00:51:45;;;;;;;3.85;0.80;;;14.50;99.90;;;;;;5017951;28;20492;-79
2021/08/24 00:54:18;;;;;;;1.40;1.08;;;14.50;99.90;;;;;;5017635;28;20190;-80
2021/08/24 00:56:51;;;;;;;4.47;1.30;;;14.50;99.90;;;;;;5018377;28;20228;-81
2021/08/24 00:59:17;;;;;;;2.33;1.15;;;14.50;99.90;;;;;;5017002;28;20186;-81
2021/08/24 01:01:47;;;;;;;2.63;1.10;;;14.40;99.90;;;;;;5017184;28;20251;-80
2021/08/24 01:04:14;;;;;;;1.63;0.90;;;14.40;99.90;;;;;;5017478;28;20280;-79
2021/08/24 01:06:54;;;;;;;1.35;1.13;;;14.40;99.90;;;;;;5017614;28;20182;-79
2021/08/24 01:09:42;;;;;;;1.80;1.27;;;14.40;99.90;;;;;;5017876;28;20169;-80
2021/08/24 01:12:25;;;;;;;2.40;1.55;;;14.30;99.90;;;;;;5017592;28;20509;-80
2021/08/24 01:15:04;;;;;;;2.38;1.13;;;14.20;99.90;;;;;;5017789;28;20696;-80
2021/08/24 01:17:51;;;;;;;3.42;1.02;;;14.20;99.90;;;;;;5018244;28;20186;-80
2021/08/24 01:21:00;;;;;;;1.60;1.40;;;14.10;99.90;;;;;;5017731;28;20174;-80
2021/08/24 01:24:19;;;;;;;1.70;1.17;;;14.10;99.90;;;;;;4990704;28;20240;-80
2021/08/24 01:27:10;;;;;;;2.20;1.70;;;14.10;99.90;;;;;;4937050;29;20184;-79
2021/08/24 01:30:13;;;;;;;4.15;1.20;;;14.00;99.90;;;;;;5016984;28;20170;-80
2021/08/24 01:32:41;;;;;;;1.30;1.02;;;13.90;99.90;;;;;;5016739;28;20166;-81
2021/08/24 01:35:23;;;;;;;1.33;1.10;;;13.90;99.90;;;;;;5016481;28;20193;-80
2021/08/24 01:38:10;;;;;;;1.38;1.10;;;13.90;99.90;;;;;;5014862;28;20526;-80
2021/08/24 01:41:06;;;;;;;2.38;1.58;;;13.90;99.90;;;;;;5016271;28;20641;-79
2021/08/24 01:43:46;;;;;;;1.40;1.27;;;13.80;99.90;;;;;;5014934;28;20657;-79
2021/08/24 01:46:19;;;;;;;2.83;1.00;;;13.80;99.90;;;;;;5016806;28;20284;-79
2021/08/24 01:48:50;;;;;;;2.33;1.58;;;13.80;99.90;;;;;;5015357;28;20596;-80
2021/08/24 01:51:21;;;;;;;1.45;1.30;;;13.80;99.90;;;;;;5016394;28;20178;-81
2021/08/24 01:53:59;;;;;;;1.67;1.40;;;13.70;99.90;;;;;;5015272;28;20194;-81
2021/08/24 01:56:30;;;;;;;1.88;1.30;;;13.70;99.90;;;;;;5016810;28;20170;-81
2021/08/24 01:59:05;;;;;;;1.67;1.15;;;13.70;99.90;;;;;;5015445;28;20174;-81
2021/08/24 02:01:34;;;;;;;2.67;1.77;;;13.60;99.90;;;;;;5014776;28;20180;-80
2021/08/24 02:04:04;;;;;;;1.63;1.25;;;13.60;99.90;;;;;;5015605;28;20213;-80
2021/08/24 02:06:32;;;;;;;1.30;1.20;;;13.60;99.90;;;;;;5016269;28;20186;-80
2021/08/24 02:09:04;;;;;;;3.53;1.25;;;13.50;99.90;;;;;;5016628;28;20661;-79
2021/08/24 02:11:34;;;;;;;2.17;1.10;;;13.60;99.90;;;;;;5016128;28;20177;-79
2021/08/24 02:14:05;;;;;;;2.17;1.40;;;13.60;99.90;;;;;;5015254;28;20186;-79
2021/08/24 02:16:32;;;;;;;6.38;1.83;;;13.60;99.90;;;;;;5016652;28;20173;-79
2021/08/24 02:19:03;;;;;;;1.60;1.30;;;13.60;99.90;;;;;;5016167;28;20240;-79
2021/08/24 02:21:43;;;;;;;3.22;1.45;;;13.50;99.90;;;;;;5015904;28;20177;-81
2021/08/24 02:24:13;;;;;;;2.00;1.20;;;13.50;99.90;;;;;;5015544;28;20263;-79
2021/08/24 02:26:40;;;;;;;2.20;1.50;;;13.50;99.90;;;;;;5015494;28;20181;-80
2021/08/24 02:29:05;;;;;;;2.58;1.60;;;13.50;99.90;;;;;;5016783;28;20170;-79
2021/08/24 02:31:58;;;;;;;3.97;1.43;;;13.40;99.90;;;;;;5016316;28;20228;-80
2021/08/24 02:34:42;;;;;;;1.63;1.30;;;13.40;99.90;;;;;;5014602;28;20206;-80
2021/08/24 02:37:36;;;;;;;2.45;1.55;;;13.40;99.90;;;;;;5016009;28;20172;-79
2021/08/24 02:40:09;;;;;;;3.05;1.25;;;13.40;99.90;;;;;;5015523;28;20182;-79
2021/08/24 02:42:48;;;;;;;3.78;1.70;;;13.30;99.90;;;;;;5016016;28;20197;-80
2021/08/24 02:45:22;;;;;;;3.38;1.35;;;13.40;99.90;;;;;;5014784;28;20247;-80
2021/08/24 02:47:48;;;;;;;2.10;1.20;;;13.30;99.90;;;;;;5014736;28;20187;-80
2021/08/24 02:50:14;;;;;;;1.83;1.47;;;13.40;99.90;;;;;;5014964;28;20268;-79
2021/08/24 02:52:40;;;;;;;2.47;2.00;;;13.40;99.90;;;;;;5014596;28;20413;-80
2021/08/24 02:55:08;;;;;;;3.77;1.57;;;13.40;99.90;;;;;;5015544;28;20194;-80
2021/08/24 02:57:34;;;;;;;1.38;1.13;;;13.30;99.90;;;;;;5014758;28;20424;-80
2021/08/24 02:59:59;;;;;;;1.42;1.30;;;13.30;99.90;;;;;;5014283;28;20241;-80
2021/08/24 03:02:28;;;;;;;1.70;1.10;;;13.30;99.90;;;;;;5015839;28;20269;-80
2021/08/24 03:04:54;;;;;;;1.70;1.40;;;13.30;99.90;;;;;;5013732;28;20260;-79
2021/08/24 03:07:29;;;;;;;3.90;1.23;;;13.30;99.90;;;;;;5016042;28;20194;-80
2021/08/24 03:09:58;;;;;;;2.85;1.35;;;13.20;99.90;;;;;;5013605;28;20424;-80
2021/08/24 03:12:39;;;;;;;2.55;2.10;;;13.30;99.90;;;;;;5016528;28;20518;-80
2021/08/24 03:15:07;;;;;;;2.45;1.50;;;13.20;99.90;;;;;;5012800;28;20200;-79
2021/08/24 03:17:40;;;;;;;3.63;1.10;;;13.20;99.90;;;;;;5015490;28;20268;-79
2021/08/24 03:20:08;;;;;;;1.67;1.55;;;13.20;99.90;;;;;;5017085;28;20189;-80
2021/08/24 03:22:35;;;;;;;2.42;2.08;;;13.10;99.90;;;;;;5016317;28;20558;-80
2021/08/24 03:25:03;;;;;;;1.25;1.15;;;13.10;99.90;;;;;;5015046;28;20214;-79
2021/08/24 03:27:33;;;;;;;2.50;1.30;;;13.10;99.90;;;;;;5016607;28;20198;-80
2021/08/24 03:30:02;;;;;;;3.33;1.55;;;13.10;99.90;;;;;;5013394;28;20170;-79
2021/08/24 03:32:27;;;;;;;1.75;1.35;;;13.10;99.90;;;;;;5014382;28;20182;-80
2021/08/24 03:34:53;;;;;;;1.70;1.13;;;13.10;99.90;;;;;;5015426;28;20194;-80
2021/08/24 03:37:19;;;;;;;3.40;1.67;;;13.10;99.90;;;;;;5014457;28;20675;-80
2021/08/24 03:39:44;;;;;;;2.57;1.43;;;13.10;99.90;;;;;;5014565;28;20186;-80
2021/08/24 03:42:10;;;;;;;1.43;1.30;;;13.10;99.90;;;;;;5015456;28;20194;-80
2021/08/24 03:44:36;;;;;;;3.10;1.53;;;13.10;99.90;;;;;;5014527;28;20688;-80
2021/08/24 03:47:01;;;;;;;1.97;1.33;;;13.20;99.90;;;;;;5013832;28;20435;-79
2021/08/24 03:49:27;;;;;;;2.60;1.63;;;13.20;99.90;;;;;;5015209;28;20174;-79
2021/08/24 03:51:52;;;;;;;2.00;1.40;;;13.20;99.90;;;;;;5014256;28;20189;-79
2021/08/24 03:54:18;;;;;;;1.53;1.27;;;13.20;99.90;;;;;;5015248;28;20669;-80
2021/08/24 03:56:43;;;;;;;1.70;1.13;;;13.20;99.90;;;;;;5014742;28;20210;-80
2021/08/24 03:59:10;;;;;;;3.70;1.40;;;13.20;99.90;;;;;;5015093;28;20182;-80
2021/08/24 04:01:35;;;;;;;2.85;1.60;;;13.20;99.90;;;;;;5015426;28;20581;-79
2021/08/24 04:04:01;;;;;;;3.47;1.87;;;13.20;99.90;;;;;;4997330;28;20206;-80
2021/08/24 04:06:26;;;;;;;6.40;1.37;;;13.20;99.90;;;;;;5014709;28;20193;-79
2021/08/24 04:08:52;;;;;;;2.53;1.47;;;13.20;99.90;;;;;;5015436;28;20167;-80
2021/08/24 04:11:18;;;;;;;3.47;1.93;;;13.10;99.90;;;;;;5014419;28;20571;-79
2021/08/24 04:13:43;;;;;;;1.40;1.27;;;13.10;99.90;;;;;;5013664;28;20201;-79
2021/08/24 04:16:11;;;;;;;3.17;1.87;;;13.10;99.90;;;;;;5015636;28;20464;-80
2021/08/24 04:18:38;;;;;;;2.83;1.83;;;13.10;99.90;;;;;;5014841;28;20206;-79
2021/08/24 04:21:10;;;;;;;2.00;1.35;;;13.10;99.90;;;;;;5015801;28;20180;-80
2021/08/24 04:23:36;;;;;;;4.00;1.40;;;13.00;99.90;;;;;;5017404;28;20229;-79
2021/08/24 04:26:03;;;;;;;5.45;1.90;;;13.00;99.90;;;;;;5018291;28;20206;-80
2021/08/24 04:28:33;;;;;;;6.93;1.75;;;12.90;99.90;;;;;;5018164;28;20200;-80
2021/08/24 04:30:58;;;;;;;2.65;1.80;;;13.00;99.90;;;;;;5018440;28;20178;-80
2021/08/24 04:33:24;;;;;;;1.83;1.73;;;13.00;99.90;;;;;;5016830;28;20171;-80
2021/08/24 04:35:52;;;;;;;2.90;1.83;;;13.00;99.90;;;;;;5017480;28;20174;-79
2021/08/24 04:38:18;;;;;;;2.95;1.42;;;13.00;99.90;;;;;;5016328;28;20809;-79
2021/08/24 04:40:44;;;;;;;3.40;1.52;;;13.00;99.90;;;;;;5018554;28;20189;-79
2021/08/24 04:43:10;;;;;;;2.28;1.48;;;13.00;99.90;;;;;;5017844;28;20194;-79
2021/08/24 04:45:36;;;;;;;1.58;1.20;;;13.00;99.90;;;;;;5018246;28;20198;-80
2021/08/24 04:48:02;;;;;;;3.33;1.57;;;13.10;99.90;;;;;;5016739;28;20182;-79
2021/08/24 04:50:27;;;;;;;1.20;0.90;;;13.10;99.90;;;;;;5016874;28;20190;-80
2021/08/24 04:52:53;;;;;;;2.93;1.33;;;13.20;99.90;;;;;;5017734;28;20179;-79
2021/08/24 04:55:18;;;;;;;2.73;1.80;;;13.20;99.90;;;;;;5017143;28;20755;-78
2021/08/24 04:57:47;;;;;;;1.40;1.20;;;13.30;99.90;;;;;;5017514;28;20178;-81
2021/08/24 05:00:13;;;;;;;1.77;1.63;;;13.30;99.90;;;;;;5017829;28;20170;-81
2021/08/24 05:02:42;;;;;;;2.05;1.20;;;13.20;99.90;;;;;;5015946;28;20203;-80
2021/08/24 05:05:08;;;;;;;3.97;1.90;;;13.30;99.90;;;;;;4999259;28;20719;-80
2021/08/24 05:07:33;;;;;;;2.83;2.00;;;13.30;99.90;;;;;;5017766;28;20704;-80
2021/08/24 05:09:59;;;;;;;1.93;1.73;;;13.40;99.90;;;;;;5016056;28;20212;-80
2021/08/24 05:12:24;;;;;;;3.73;1.87;;;13.50;99.90;;;;;;5015550;28;20194;-80
2021/08/24 05:14:50;;;;;;;2.43;1.50;;;13.60;99.90;;;;;;4999319;28;20807;-79
2021/08/24 05:17:16;;;;;;;3.80;2.10;;;13.60;99.90;;;;;;5017721;28;20553;-79
2021/08/24 05:19:41;;;;;;;4.00;2.37;;;13.70;99.90;;;;;;5015870;28;20178;-81
2021/08/24 05:22:06;;;;;;;2.60;1.50;;;13.80;99.90;;;;;;4998137;28;20193;-79
2021/08/24 05:24:36;;;;;;;3.70;2.23;;;13.90;99.90;;;;;;5016628;28;20213;-80
2021/08/24 05:27:02;;;;;;;2.50;1.67;;;13.80;99.90;;;;;;5017017;28;20652;-79
2021/08/24 05:29:28;;;;;;;1.60;1.17;;;13.80;99.90;;;;;;5014801;28;20269;-79
2021/08/24 05:31:53;;;;;;;3.10;1.20;;;13.90;99.90;;;;;;5018578;28;20194;-79
2021/08/24 05:34:19;;;;;;;3.93;2.10;;;13.90;99.90;;;;;;5003466;28;20259;-78
2021/08/24 05:36:44;;;;;;;1.87;1.20;;;13.90;99.90;;;;;;5005373;28;20277;-79
2021/08/24 05:39:10;;;;;;;1.50;1.40;;;13.80;99.90;;;;;;5020752;28;20186;-78
2021/08/24 05:41:37;;;;;;;6.10;2.00;;;13.90;99.90;;;;;;5022391;28;20683;-79
2021/08/24 05:44:03;;;;;;;1.80;1.45;;;13.90;99.90;;;;;;5021288;28;20550;-79
2021/08/24 05:46:28;;;;;;;3.47;2.27;;;14.00;99.90;;;;;;5021755;28;20184;-79
2021/08/24 05:48:54;;;;;;;1.73;1.40;;;14.00;99.90;;;;;;5022070;28;20190;-78
2021/08/24 05:51:21;;;;;;;2.10;1.87;;;14.10;99.90;;;;;;5024309;28;20189;-78
2021/08/24 05:53:47;;;;;;;1.65;1.35;;;14.20;99.90;;;;;;5017117;28;20606;-77
2021/08/24 05:56:18;;;;;;;6.50;1.53;;;14.20;99.90;;;;;;5002227;28;20174;-79
2021/08/24 05:58:45;;;;;;;2.42;1.52;;;14.40;99.90;;;;;;5005776;28;20171;-79
2021/08/24 06:01:17;;;;;;;1.60;1.25;;;14.70;99.90;;;;;;5022971;28;20166;-79
2021/08/24 06:03:43;;;;;;;2.90;1.52;;;14.90;99.90;;;;;;5016367;28;20162;-79
2021/08/24 06:06:16;;;;;;;1.97;1.43;;;15.20;99.90;;;;;;5017047;28;20213;-82
2021/08/24 06:08:42;;;;;;;3.05;1.70;;;15.20;99.90;;;;;;5016913;28;20207;-81
2021/08/24 06:11:21;;;;;;;2.03;1.57;;;15.10;99.90;;;;;;5017889;28;20175;-80
2021/08/24 06:13:47;;;;;;;3.08;1.63;;;15.20;99.90;;;;;;5016426;28;20214;-81
2021/08/24 06:16:15;;;;;;;1.50;1.20;;;15.20;99.90;;;;;;5015741;28;20177;-81
2021/08/24 06:18:41;;;;;;;2.08;1.48;;;15.20;99.90;;;;;;5015971;28;20182;-79
2021/08/24 06:21:08;;;;;;;2.43;1.30;;;15.50;99.90;;;;;;4998861;28;20229;-80
2021/08/24 06:23:34;;;;;;;2.90;1.70;;;15.70;99.90;;;;;;5014171;28;20423;-80
2021/08/24 06:25:59;;;;;;;3.30;1.70;;;16.00;99.90;;;;;;5026953;28;21020;-80
2021/08/24 06:28:25;;;;;;;2.17;1.30;;;16.00;99.90;;;;;;4997159;28;20404;-81
2021/08/24 06:30:51;;;;;;;6.00;1.87;;;16.10;99.90;;;;;;5014073;28;20185;-82
2021/08/24 06:33:18;;;;;;;1.83;1.13;;;16.10;99.90;;;;;;5014439;28;20261;-81
2021/08/24 06:35:45;;;;;;;1.40;0.90;;;16.10;99.90;;;;;;5007831;28;20882;-80
2021/08/24 06:38:10;;;;;;;1.60;1.10;;;16.10;99.90;;;;;;4979653;28;20421;-81
2021/08/24 06:40:36;;;;;;;1.63;1.20;;;16.20;99.90;;;;;;4997235;28;20975;-82
2021/08/24 06:43:03;;;;;;;4.80;1.30;;;16.40;99.90;;;;;;5015348;28;20241;-80
2021/08/24 06:45:30;;;;;;;2.23;1.40;;;16.40;99.90;;;;;;5014392;28;20206;-79
2021/08/24 06:47:56;;;;;;;3.57;1.70;;;16.60;99.90;;;;;;5016074;28;20971;-81
2021/08/24 06:50:28;;;;;;;2.33;1.63;;;16.40;99.90;;;;;;5010119;28;20429;-80
2021/08/24 06:52:54;;;;;;;2.63;1.90;;;16.50;99.90;;;;;;5006388;28;20429;-82
2021/08/24 06:55:20;;;;;;;1.53;1.20;;;16.40;99.90;;;;;;5013547;28;20444;-80
2021/08/24 06:57:48;;;;;;;2.03;1.37;;;16.60;99.90;;;;;;5012901;28;20421;-79
2021/08/24 07:00:17;;;;;;;1.83;1.33;;;16.60;99.90;;;;;;4989757;28;20188;-79
2021/08/24 07:02:44;;;;;;;1.30;1.00;;;16.70;99.90;;;;;;5012950;28;20928;-80
2021/08/24 07:05:11;;;;;;;2.90;1.20;;;17.10;99.90;;;;;;5029740;28;20966;-78
2021/08/24 07:07:37;;;;;;;3.83;1.90;;;17.10;99.90;;;;;;5017907;28;20958;-78
2021/08/24 07:10:05;;;;;;;2.00;1.03;;;16.70;99.90;;;;;;5032415;28;20447;-81
2021/08/24 07:12:30;;;;;;;3.10;1.33;;;16.70;99.90;;;;;;5012812;28;20228;-79
2021/08/24 07:14:57;;;;;;;1.30;1.00;;;16.80;99.90;;;;;;5011554;28;20436;-80
2021/08/24 07:17:23;;;;;;;1.60;1.10;;;16.90;99.90;;;;;;5012637;28;20178;-78
2021/08/24 07:19:50;;;;;;;2.70;1.00;;;16.80;99.90;;;;;;5012744;28;20781;-78
2021/08/24 07:22:15;;;;;;;1.37;1.00;;;16.80;99.90;;;;;;5012525;28;20436;-79
2021/08/24 07:24:41;;;;;;;1.77;1.40;;;16.80;99.90;;;;;;5012121;28;20460;-78
2021/08/24 07:27:07;;;;;;;1.33;0.97;;;16.80;99.90;;;;;;5012567;28;20225;-78
2021/08/24 07:29:33;;;;;;;1.50;1.20;;;16.80;99.90;;;;;;5012861;28;20189;-80
2021/08/24 07:31:59;;;;;;;1.70;1.00;;;16.80;99.90;;;;;;5012919;28;20428;-79
2021/08/24 07:34:24;;;;;;;4.70;1.30;;;16.90;99.90;;;;;;5011274;28;20222;-80
2021/08/24 07:36:50;;;;;;;1.73;1.20;;;16.90;99.90;;;;;;5011258;28;20185;-80
2021/08/24 07:39:15;;;;;;;1.40;0.93;;;17.00;99.90;;;;;;5012762;28;20181;-79
2021/08/24 07:41:44;;;;;;;2.50;1.53;;;17.00;99.90;;;;;;5011691;28;20194;-79
2021/08/24 07:44:09;;;;;;;3.27;1.17;;;17.00;99.90;;;;;;5012202;28;20206;-78
2021/08/24 07:46:35;;;;;;;2.93;1.37;;;17.00;99.90;;;;;;5010395;28;20424;-78
2021/08/24 07:49:00;;;;;;;2.00;1.47;;;17.10;99.90;;;;;;5011435;28;20277;-78
2021/08/24 07:51:26;;;;;;;5.83;1.80;;;17.30;99.90;;;;;;5010716;28;20305;-78
2021/08/24 07:53:52;;;;;;;4.10;1.30;;;17.10;99.90;;;;;;5012230;28;20199;-78
2021/08/24 07:56:20;;;;;;;1.60;0.90;;;17.10;99.90;;;;;;5010535;28;20174;-79
2021/08/24 07:58:46;;;;;;;1.80;1.20;;;17.30;99.90;;;;;;5014054;28;20479;-79
2021/08/24 08:01:12;;;;;;;6.50;1.30;;;17.10;99.90;;;;;;5016771;28;20421;-78
2021/08/24 08:03:37;;;;;;;3.83;1.43;;;17.10;99.90;;;;;;5011387;28;20205;-79
2021/08/24 08:06:03;;;;;;;2.43;1.20;;;17.20;99.90;;;;;;5011737;28;20209;-80
2021/08/24 08:08:28;;;;;;;2.53;1.30;;;17.40;99.90;;;;;;5013183;28;20171;-79
2021/08/24 08:10:57;;;;;;;2.30;1.27;;;17.40;99.90;;;;;;5012101;28;20174;-80
2021/08/24 08:13:27;;;;;;;2.10;1.30;;;17.50;99.90;;;;;;5014482;28;20562;-78
2021/08/24 08:15:52;;;;;;;3.57;1.17;;;17.40;99.90;;;;;;5016407;28;20401;-78
2021/08/24 08:18:18;;;;;;;2.43;1.10;;;17.30;99.90;;;;;;5038185;28;20895;-79
2021/08/24 08:20:45;;;;;;;1.80;0.90;;;17.40;99.90;;;;;;5012932;28;20178;-78
2021/08/24 08:23:12;;;;;;;1.20;1.00;;;17.50;99.90;;;;;;5014777;28;20198;-79
2021/08/24 08:25:37;;;;;;;3.27;1.47;;;17.50;99.90;;;;;;5011422;28;20816;-79
2021/08/24 08:28:04;;;;;;;1.90;1.30;;;17.60;99.90;;;;;;5012788;28;20426;-80
2021/08/24 08:30:30;;;;;;;1.53;1.10;;;17.50;99.90;;;;;;5014295;28;20193;-79
2021/08/24 08:32:57;;;;;;;4.90;0.97;;;17.50;99.90;;;;;;5010759;28;20430;-80
2021/08/24 08:35:25;;;;;;;1.40;0.80;;;17.50;99.90;;;;;;5011629;28;20455;-78
2021/08/24 08:37:51;;;;;;;1.53;1.00;;;17.30;99.90;;;;;;5012827;28;20428;-78
2021/08/24 08:40:36;;;;;;;2.43;1.40;;;17.40;99.90;;;;;;4998498;28;20445;-78
2021/08/24 08:43:32;;;;;;;1.93;0.90;;;17.50;99.90;;;;;;5002837;28;20464;-79
2021/08/24 08:46:03;;;;;;;1.77;0.90;;;17.60;99.90;;;;;;5013331;28;20486;-79
2021/08/24 08:48:49;;;;;;;1.40;0.93;;;17.70;99.90;;;;;;5010667;28;20453;-78
2021/08/24 08:51:27;;;;;;;3.43;1.17;;;17.90;99.90;;;;;;5012815;28;20421;-78
2021/08/24 08:54:26;;;;;;;1.97;1.13;;;17.70;99.90;;;;;;5014429;28;20442;-80
2021/08/24 08:57:00;;;;;;;1.30;1.00;;;17.60;99.90;;;;;;5009930;28;20405;-77
2021/08/24 08:59:49;;;;;;;1.60;1.10;;;17.70;99.90;;;;;;5026470;28;20412;-78
2021/08/24 09:02:49;;;;;;;2.63;1.47;;;17.90;99.90;;;;;;4994015;28;20456;-80
2021/08/24 09:05:18;;;;;;;1.60;0.90;;;17.90;99.90;;;;;;5008518;28;20466;-78
2021/08/24 09:07:49;;;;;;;1.90;1.30;;;18.00;99.90;;;;;;5009268;28;20503;-77
2021/08/24 09:10:26;;;;;;;1.23;0.87;;;18.00;99.90;;;;;;5012061;28;20881;-80
2021/08/24 09:13:06;;;;;;;2.27;1.10;;;18.00;99.90;;;;;;5011152;28;20451;-78
2021/08/24 09:15:48;;;;;;;1.90;1.30;;;18.00;99.90;;;;;;5011188;28;20820;-78
2021/08/24 09:18:34;;;;;;;1.20;1.00;;;18.10;99.90;;;;;;5012582;28;20407;-77
2021/08/24 09:21:02;;;;;;;1.77;1.20;;;18.00;99.90;;;;;;5009871;28;20426;-78
2021/08/24 09:23:28;;;;;;;3.13;1.20;;;18.20;99.90;;;;;;5013417;28;20435;-79
2021/08/24 09:26:06;;;;;;;2.40;1.10;;;18.20;99.90;;;;;;5011057;28;20462;-78
2021/08/24 09:28:33;;;;;;;3.40;1.10;;;18.30;99.90;;;;;;5012365;28;20169;-77
2021/08/24 09:31:00;;;;;;;1.90;1.10;;;18.30;99.90;;;;;;5012667;28;20424;-78
2021/08/24 09:33:28;;;;;;;3.00;1.43;;;18.40;99.90;;;;;;5011905;28;20494;-79
2021/08/24 09:35:54;;;;;;;2.50;1.73;;;18.50;99.90;;;;;;5012564;28;20471;-78
2021/08/24 09:38:28;;;;;;;2.23;1.40;;;18.50;99.90;;;;;;5011195;28;20431;-79
2021/08/24 09:40:57;;;;;;;2.37;1.07;;;18.50;99.90;;;;;;5010998;28;20438;-79
2021/08/24 09:43:22;;;;;;;1.50;1.10;;;18.40;99.90;;;;;;5012180;28;20428;-79
2021/08/24 09:45:55;;;;;;;2.33;1.37;;;18.20;99.90;;;;;;5010840;28;20449;-77
2021/08/24 09:48:21;;;;;;;1.53;0.97;;;18.10;99.90;;;;;;5012131;28;20186;-78
2021/08/24 09:50:47;;;;;;;1.40;1.00;;;18.00;99.90;;;;;;4994629;28;20432;-76
2021/08/24 09:53:36;;;;;;;2.70;1.10;;;18.10;99.90;;;;;;5011475;28;20781;-77
2021/08/24 09:56:07;;;;;;;1.40;0.97;;;18.20;99.90;;;;;;4996226;28;20187;-77
2021/08/24 09:58:39;;;;;;;1.50;0.90;;;18.30;99.90;;;;;;5009499;28;20446;-78
2021/08/24 10:01:08;;;;;;;1.30;0.90;;;18.30;99.90;;;;;;5011468;28;20923;-78
2021/08/24 10:03:42;;;;;;;3.67;1.30;;;18.40;99.90;;;;;;5011372;28;20463;-79
2021/08/24 10:06:25;;;;;;;2.30;1.33;;;18.40;99.90;;;;;;5014065;28;20524;-80
2021/08/24 10:08:58;;;;;;;1.43;1.27;;;18.60;99.90;;;;;;5014386;28;20405;-79
2021/08/24 10:11:31;;;;;;;2.50;1.23;;;18.60;99.90;;;;;;5013005;28;20436;-77
2021/08/24 10:14:11;;;;;;;1.67;0.93;;;18.50;99.90;;;;;;5011714;28;20578;-79
2021/08/24 10:16:40;;;;;;;2.43;1.13;;;18.60;99.90;;;;;;5013058;28;20411;-80
2021/08/24 10:19:16;;;;;;;2.20;1.00;;;18.90;99.90;;;;;;5013861;28;20962;-78
2021/08/24 10:22:09;;;;;;;10.37;2.03;;;19.00;99.90;;;;;;5014474;28;20403;-79
2021/08/24 10:24:39;;;;;;;1.93;1.47;;;19.20;99.90;;;;;;4993778;28;20948;-79
2021/08/24 10:27:22;;;;;;;2.63;1.23;;;19.50;99.90;;;;;;4993128;28;20410;-78
2021/08/24 10:29:52;;;;;;;2.03;1.30;;;19.30;99.90;;;;;;5006060;28;20429;-77
2021/08/24 10:32:29;;;;;;;3.47;1.60;;;19.00;99.90;;;;;;5010377;28;20420;-78
2021/08/24 10:34:55;;;;;;;2.97;1.67;;;19.00;99.90;;;;;;5007546;28;20440;-80
2021/08/24 10:37:23;;;;;;;1.77;1.43;;;19.10;99.90;;;;;;5009854;28;20432;-80
2021/08/24 10:39:54;;;;;;;1.40;1.00;;;18.90;99.90;;;;;;5014526;28;20417;-79
2021/08/24 10:42:23;;;;;;;2.13;1.20;;;18.90;99.90;;;;;;5010204;28;20416;-79
2021/08/24 10:44:54;;;;;;;1.50;1.00;;;18.90;99.90;;;;;;4992539;28;20477;-79
2021/08/24 10:47:31;;;;;;;1.63;1.37;;;18.90;99.90;;;;;;4999284;28;20408;-79
2021/08/24 10:49:59;;;;;;;2.40;1.30;;;19.00;99.90;;;;;;4998703;28;20481;-79
2021/08/24 10:52:46;;;;;;;3.07;1.20;;;18.90;99.90;;;;;;4998651;28;20460;-80
2021/08/24 10:55:20;;;;;;;3.30;1.40;;;19.20;99.90;;;;;;4994620;28;20517;-79
2021/08/24 10:57:53;;;;;;;1.50;1.10;;;19.40;99.90;;;;;;5022736;28;20411;-79
2021/08/24 11:00:23;;;;;;;3.30;1.37;;;19.50;99.90;;;;;;5032531;28;20534;-78
2021/08/24 11:03:12;;;;;;;3.10;1.60;;;19.00;99.90;;;;;;5030546;28;20416;-76
2021/08/24 11:05:48;;;;;;;2.47;1.67;;;19.20;99.90;;;;;;5031922;28;20517;-78
2021/08/24 11:08:38;;;;;;;1.93;1.20;;;19.10;99.90;;;;;;5019357;28;20495;-77
2021/08/24 11:11:16;;;;;;;1.70;1.20;;;19.10;99.90;;;;;;5011555;28;20397;-77
2021/08/24 11:13:55;;;;;;;1.60;1.00;;;19.10;99.90;;;;;;5012170;28;20385;-77
2021/08/24 11:16:44;;;;;;;1.90;1.20;;;19.20;99.90;;;;;;5012549;28;20392;-77
2021/08/24 11:19:40;;;;;;;2.17;1.20;;;19.20;99.90;;;;;;5013239;28;20880;-76
2021/08/24 11:22:31;;;;;;;1.93;1.40;;;19.40;99.90;;;;;;5012296;28;20395;-79
2021/08/24 11:25:19;;;;;;;2.17;1.40;;;19.40;99.90;;;;;;5011836;28;20449;-77
2021/08/24 11:27:56;;;;;;;2.47;1.33;;;19.50;99.90;;;;;;5012136;28;20397;-77
2021/08/24 11:30:30;;;;;;;5.07;2.03;;;19.50;99.90;;;;;;5011956;28;20389;-78
2021/08/24 11:33:11;;;;;;;2.47;1.30;;;19.40;99.90;;;;;;5015136;28;20394;-76
2021/08/24 11:35:57;;;;;;;4.30;1.60;;;19.20;99.90;;;;;;5015987;28;20947;-77
2021/08/24 11:38:29;;;;;;;1.90;1.37;;;19.10;99.90;;;;;;5015868;28;20403;-78
2021/08/24 11:41:08;;;;;;;2.53;1.47;;;19.20;99.90;;;;;;5015989;28;20451;-77
2021/08/24 11:43:46;;;;;;;2.20;1.00;;;19.30;99.90;;;;;;5015501;28;20495;-76
2021/08/24 11:46:39;;;;;;;2.53;1.60;;;19.40;99.90;;;;;;5016164;28;20485;-78
2021/08/24 11:49:11;;;;;;;2.13;1.50;;;19.60;99.90;;;;;;5016183;28;20431;-77
2021/08/24 11:51:42;;;;;;;2.23;1.20;;;19.70;99.90;;;;;;5014787;28;20417;-77
2021/08/24 11:54:38;;;;;;;2.30;1.53;;;19.60;99.90;;;;;;5014555;28;20951;-77
2021/08/24 11:57:32;;;;;;;4.57;1.53;;;19.50;99.90;;;;;;5015998;28;20415;-77
2021/08/24 11:59:58;;;;;;;1.97;1.23;;;19.60;99.90;;;;;;5015755;28;20408;-77
2021/08/24 12:02:37;;;;;;;3.53;1.67;;;19.70;99.90;;;;;;5015736;28;20435;-76
2021/08/24 12:05:04;;;;;;;3.00;1.63;;;19.80;99.60;;;;;;5013848;28;20215;-77
2021/08/24 12:07:36;;;;;;;2.17;1.10;;;19.70;99.90;;;;;;5015853;28;20409;-76
2021/08/24 12:10:18;;;;;;;3.10;2.00;;;19.60;99.90;;;;;;5015904;28;20428;-77
2021/08/24 12:12:54;;;;;;;4.10;1.63;;;19.60;99.90;;;;;;5015792;28;20437;-76
2021/08/24 12:16:06;;;;;;;1.90;1.63;;;19.70;99.30;;;;;;5015311;28;20435;-77
2021/08/24 12:18:32;;;;;;;2.70;1.50;;;19.70;99.40;;;;;;4987964;28;20430;-76
2021/08/24 12:21:19;;;;;;;3.70;1.90;;;19.70;99.90;;;;;;5013888;28;20422;-76
2021/08/24 12:23:45;;;;;;;5.60;2.10;;;20.00;99.90;;;;;;5014765;28;20202;-78
2021/08/24 12:26:22;;;;;;;3.67;2.27;;;20.10;99.90;;;;;;5015230;28;20565;-74
2021/08/24 12:28:48;;;;;;;3.47;2.10;;;19.90;99.90;;;;;;5015344;28;20165;-76
2021/08/24 12:31:41;;;;;;;2.93;1.90;;;19.80;99.90;;;;;;5015010;28;20453;-76
2021/08/24 12:34:33;;;;;;;3.13;1.90;;;19.70;99.90;;;;;;5007815;28;20603;-76
2021/08/24 12:37:03;;;;;;;4.37;2.00;;;19.70;99.90;;;;;;5014918;28;20444;-76
2021/08/24 12:39:44;;;;;;;4.07;2.30;;;19.80;99.90;;;;;;5015541;28;20745;-76
2021/08/24 12:42:30;;;;;;;3.87;2.20;;;19.80;99.90;;;;;;5015441;28;20400;-76
2021/08/24 12:44:58;;;;;;;4.77;2.30;;;19.70;99.90;;;;;;5014025;28;20464;-78
2021/08/24 12:47:29;;;;;;;2.03;1.70;;;19.70;99.90;;;;;;5014108;28;20425;-77
2021/08/24 12:50:16;;;;;;;4.10;2.10;;;19.80;99.90;;;;;;5015186;28;20466;-78
2021/08/24 12:52:45;;;;;;;4.20;2.17;;;19.70;99.90;;;;;;5004561;28;20452;-77
2021/08/24 12:55:39;;;;;;;3.00;1.70;;;19.60;99.90;;;;;;5014770;28;20511;-76
2021/08/24 12:58:14;;;;;;;5.03;1.90;;;19.50;99.90;;;;;;5014655;28;20768;-77
2021/08/24 13:00:42;;;;;;;4.23;2.27;;;19.70;99.90;;;;;;5014951;28;20468;-76
2021/08/24 13:03:22;;;;;;;4.33;2.23;;;19.80;99.90;;;;;;5014618;28;20418;-76
2021/08/24 13:06:08;;;;;;;4.43;2.70;;;20.00;99.90;;;;;;5014552;28;20979;-77
2021/08/24 13:08:34;;;;;;;3.10;2.70;;;19.90;99.90;;;;;;5014716;28;20417;-77
2021/08/24 13:11:30;;;;;;;3.50;2.17;;;20.10;99.90;;;;;;5025808;28;20418;-77